TaiNan

AWC - ADDS METARs

ADDS METAR Data

Data at: 0151 UTC 23 Jan 2018

METAR for:RCNN (Tainan(TW-AFB), --, TW)
Text:RCNN 230130Z 03005KT 9999 FEW012 19/13 Q1015 NOSIG RMK A2998
Temperature: 19.0°C ( 66°F)
Dewpoint: 13.0°C ( 55°F) [RH = 68%]
Pressure (altimeter):29.97 inches Hg (1015.0 mb)
Winds:from the NNE (30 degrees) at 6 MPH (5 knots; 2.6 m/s)
Visibility:6 or more sm (10+ km)
Ceiling:at least 12,000 feet AGL
Clouds: few clouds at 1200 feet AGL

Beauvechain

AWC - ADDS METARs

ADDS METAR Data

Data at: 0151 UTC 23 Jan 2018

METAR for:EBBE (Beauvechain(AB), --, BX)
Text:EBBE 230125Z AUTO 23006KT 9999 BKN043/// 06/03 Q1021 BLU
Temperature: 6.0°C ( 43°F)
Dewpoint: 3.0°C ( 37°F) [RH = 81%]
Pressure (altimeter):30.15 inches Hg (1021.0 mb)
Winds:from the SW (230 degrees) at 7 MPH (6 knots; 3.1 m/s)
Visibility:6 or more sm (10+ km)
Ceiling:4300 feet AGL
Clouds: broken clouds at 4300 feet AGL

Home page